Time;durP1;ratioP1;P1;durP2;ratioP2;P2;SDS_P1;SDS_P2;PMS_P1;PMS_P2;Temp;Humidity;BMP_temperature;BMP_pressure;BME280_temperature;BME280_humidity;BME280_pressure;Samples;Min_cycle;Max_cycle;Signal;HPM_P1;HPM_P2
2021/07/23 00:01:16;;;;;;;2.30;1.70;;;22.40;55.00;;;;;;4957899;28;20480;-79
2021/07/23 00:03:42;;;;;;;2.17;1.77;;;22.40;55.00;;;;;;4957809;28;20035;-79
2021/07/23 00:06:07;;;;;;;1.65;1.50;;;22.30;55.00;;;;;;4958441;28;20476;-79
2021/07/23 00:08:33;;;;;;;2.05;1.83;;;22.30;55.00;;;;;;4956583;28;20042;-80
2021/07/23 00:10:59;;;;;;;2.20;1.75;;;22.30;55.10;;;;;;4973846;28;20058;-79
2021/07/23 00:13:25;;;;;;;2.40;2.00;;;22.20;55.10;;;;;;4957702;28;20438;-80
2021/07/23 00:15:50;;;;;;;2.63;2.00;;;22.20;55.10;;;;;;4974332;28;20033;-80
2021/07/23 00:18:16;;;;;;;2.60;1.70;;;22.20;55.20;;;;;;4957675;28;20081;-79
2021/07/23 00:20:42;;;;;;;1.95;1.73;;;22.20;55.20;;;;;;4957574;28;20027;-80
2021/07/23 00:23:08;;;;;;;2.72;1.95;;;22.10;55.20;;;;;;4973526;28;20043;-79
2021/07/23 00:25:37;;;;;;;2.50;1.70;;;22.10;55.30;;;;;;4957664;28;20023;-79
2021/07/23 00:28:04;;;;;;;2.47;2.00;;;22.00;55.30;;;;;;4973528;28;20050;-80
2021/07/23 00:30:29;;;;;;;2.20;1.70;;;22.00;55.30;;;;;;4956935;28;20078;-79
2021/07/23 00:32:55;;;;;;;2.97;2.10;;;22.00;55.30;;;;;;4974591;28;20069;-80
2021/07/23 00:35:21;;;;;;;3.08;1.85;;;21.90;55.30;;;;;;4958140;28;20122;-80
2021/07/23 00:37:47;;;;;;;2.58;2.00;;;21.90;55.40;;;;;;4957367;28;20463;-80
2021/07/23 00:40:13;;;;;;;2.05;1.80;;;21.90;55.40;;;;;;4957603;28;20027;-79
2021/07/23 00:42:41;;;;;;;2.80;1.90;;;21.80;55.40;;;;;;4957477;28;20046;-79
2021/07/23 00:45:08;;;;;;;3.17;2.10;;;21.80;55.50;;;;;;4973467;28;20035;-80
2021/07/23 00:47:38;;;;;;;2.80;2.10;;;21.80;55.50;;;;;;4958243;28;20050;-80
2021/07/23 00:50:07;;;;;;;1.77;1.65;;;21.80;55.60;;;;;;4973734;28;20035;-81
2021/07/23 00:52:34;;;;;;;2.83;2.00;;;21.70;55.60;;;;;;4941224;28;20030;-79
2021/07/23 00:55:02;;;;;;;2.65;1.98;;;21.70;55.60;;;;;;4958016;28;20126;-81
2021/07/23 00:57:29;;;;;;;2.38;1.90;;;21.70;55.70;;;;;;4957412;28;20031;-79
2021/07/23 00:59:57;;;;;;;2.40;2.05;;;21.60;55.70;;;;;;4957930;28;20030;-78
2021/07/23 01:02:25;;;;;;;2.53;1.85;;;21.60;55.70;;;;;;4957308;28;20038;-81
2021/07/23 01:04:52;;;;;;;2.60;1.90;;;21.50;55.70;;;;;;4956842;28;20046;-80
2021/07/23 01:07:18;;;;;;;2.08;1.83;;;21.50;55.80;;;;;;4973371;28;20038;-80
2021/07/23 01:09:44;;;;;;;2.85;2.08;;;21.50;55.80;;;;;;4958040;28;20031;-79
2021/07/23 01:12:29;;;;;;;2.55;1.95;;;21.50;55.90;;;;;;4959814;28;20046;-79
2021/07/23 01:14:57;;;;;;;2.25;1.95;;;21.50;55.90;;;;;;4973825;28;20476;-80
2021/07/23 01:17:23;;;;;;;3.00;1.95;;;21.40;55.90;;;;;;4973129;28;20031;-79
2021/07/23 01:20:00;;;;;;;1.90;1.70;;;21.40;55.90;;;;;;4973773;28;20446;-80
2021/07/23 01:22:29;;;;;;;2.50;1.90;;;21.30;56.00;;;;;;4961306;28;20047;-80
2021/07/23 01:24:57;;;;;;;2.33;1.92;;;21.30;56.00;;;;;;4976556;28;20047;-81
2021/07/23 01:27:24;;;;;;;2.22;1.83;;;21.30;56.10;;;;;;4960705;28;20058;-79
2021/07/23 01:30:09;;;;;;;2.72;2.00;;;21.30;56.10;;;;;;4961394;28;20042;-79
2021/07/23 01:32:38;;;;;;;2.28;1.75;;;21.20;56.10;;;;;;4961072;28;20042;-79
2021/07/23 01:35:06;;;;;;;2.72;1.98;;;21.20;56.10;;;;;;4960734;28;20057;-79
2021/07/23 01:37:34;;;;;;;2.80;2.15;;;21.20;56.20;;;;;;4944713;28;20035;-79
2021/07/23 01:40:00;;;;;;;2.83;1.88;;;21.10;56.20;;;;;;4976274;28;20023;-79
2021/07/23 01:42:30;;;;;;;3.50;2.17;;;21.10;56.20;;;;;;4944400;28;20093;-79
2021/07/23 01:44:56;;;;;;;2.05;1.75;;;21.10;56.30;;;;;;4977388;28;20031;-79
2021/07/23 01:47:24;;;;;;;2.35;1.88;;;21.10;56.30;;;;;;4960311;28;20062;-79
2021/07/23 01:49:50;;;;;;;2.60;1.98;;;21.00;56.30;;;;;;4959838;28;20035;-79
2021/07/23 01:52:19;;;;;;;3.20;1.90;;;21.00;56.40;;;;;;4975725;28;20039;-80
2021/07/23 01:54:47;;;;;;;2.75;2.00;;;21.00;56.40;;;;;;4959953;28;20038;-79
2021/07/23 01:57:19;;;;;;;2.08;1.70;;;21.00;56.50;;;;;;4960109;28;20030;-80
2021/07/23 01:59:48;;;;;;;2.88;1.90;;;20.90;56.50;;;;;;4961074;28;20126;-80
2021/07/23 02:02:13;;;;;;;2.85;1.83;;;20.90;56.50;;;;;;4960620;28;20185;-79
2021/07/23 02:04:41;;;;;;;2.58;1.90;;;20.90;56.60;;;;;;4960818;28;20062;-80
2021/07/23 02:07:07;;;;;;;2.22;1.80;;;20.80;56.50;;;;;;4959765;28;20492;-79
2021/07/23 02:09:33;;;;;;;2.50;2.00;;;20.80;56.60;;;;;;4975743;28;20038;-79
2021/07/23 02:12:00;;;;;;;2.35;1.80;;;20.80;56.70;;;;;;4959726;28;20062;-80
2021/07/23 02:14:54;;;;;;;2.20;1.70;;;20.80;56.70;;;;;;4955102;28;20043;-80
2021/07/23 02:17:22;;;;;;;2.60;1.83;;;20.70;56.60;;;;;;4959737;28;20039;-79
2021/07/23 02:19:48;;;;;;;2.35;1.95;;;20.70;56.70;;;;;;4959498;28;20022;-80
2021/07/23 02:22:19;;;;;;;2.22;1.90;;;20.70;56.80;;;;;;4960255;28;20195;-79
2021/07/23 02:24:45;;;;;;;2.30;1.95;;;20.70;56.80;;;;;;4959444;28;20035;-79
2021/07/23 02:27:15;;;;;;;1.77;1.67;;;20.60;56.80;;;;;;4959688;28;20136;-79
2021/07/23 02:29:46;;;;;;;2.40;1.90;;;20.60;56.90;;;;;;4975334;28;20050;-80
2021/07/23 02:32:11;;;;;;;2.45;1.90;;;20.60;56.90;;;;;;4974625;28;20373;-80
2021/07/23 02:34:37;;;;;;;2.50;1.85;;;20.50;56.90;;;;;;4959442;28;20035;-80
2021/07/23 02:37:03;;;;;;;2.28;1.90;;;20.50;56.90;;;;;;4975379;28;20574;-79
2021/07/23 02:39:29;;;;;;;2.28;1.92;;;20.50;57.00;;;;;;4958824;28;20467;-79
2021/07/23 02:41:59;;;;;;;2.17;1.98;;;20.50;57.10;;;;;;4975860;28;20069;-79
2021/07/23 02:44:27;;;;;;;2.20;1.92;;;20.40;57.00;;;;;;4975209;28;20085;-79
2021/07/23 02:46:53;;;;;;;2.92;2.00;;;20.40;57.00;;;;;;4975132;28;20122;-78
2021/07/23 02:49:20;;;;;;;2.45;1.90;;;20.40;57.10;;;;;;4959299;28;20035;-79
2021/07/23 02:51:48;;;;;;;2.72;1.90;;;20.40;57.10;;;;;;4974979;28;20043;-79
2021/07/23 02:54:14;;;;;;;2.60;2.08;;;20.40;57.20;;;;;;4974913;28;20449;-78
2021/07/23 02:56:41;;;;;;;3.05;2.20;;;20.30;57.20;;;;;;4958905;28;20380;-79
2021/07/23 02:59:07;;;;;;;2.17;1.80;;;20.30;57.80;;;;;;4975324;28;20046;-79
2021/07/23 03:01:36;;;;;;;2.97;1.85;;;20.30;57.20;;;;;;4959102;28;20046;-79
2021/07/23 03:04:04;;;;;;;3.08;2.20;;;20.20;57.20;;;;;;4958873;28;20065;-79
2021/07/23 03:06:37;;;;;;;3.10;2.10;;;20.20;57.30;;;;;;4958576;28;20085;-79
2021/07/23 03:09:03;;;;;;;2.45;2.00;;;20.20;57.30;;;;;;4974302;28;20278;-79
2021/07/23 03:11:29;;;;;;;2.65;2.13;;;20.20;57.40;;;;;;4958725;28;20034;-79
2021/07/23 03:14:06;;;;;;;2.88;2.10;;;20.20;57.40;;;;;;4960811;28;20034;-79
2021/07/23 03:16:40;;;;;;;2.75;2.13;;;20.10;57.70;;;;;;4959860;28;20048;-80
2021/07/23 03:19:07;;;;;;;2.10;1.90;;;20.10;57.40;;;;;;4958319;28;20112;-80
2021/07/23 03:21:34;;;;;;;3.33;2.10;;;20.10;57.50;;;;;;4958406;28;20130;-79
2021/07/23 03:24:02;;;;;;;2.78;2.38;;;20.10;57.50;;;;;;4958618;28;20546;-78
2021/07/23 03:26:28;;;;;;;2.67;2.20;;;20.10;57.50;;;;;;4958541;28;20121;-78
2021/07/23 03:28:55;;;;;;;2.83;2.22;;;20.00;57.60;;;;;;4974620;28;20067;-78
2021/07/23 03:31:25;;;;;;;2.83;2.10;;;20.00;57.60;;;;;;4957925;28;20059;-79
2021/07/23 03:33:59;;;;;;;2.90;2.10;;;20.00;57.60;;;;;;4975190;28;20118;-79
2021/07/23 03:36:44;;;;;;;2.47;2.10;;;20.00;57.60;;;;;;4961356;28;20077;-79
2021/07/23 03:39:14;;;;;;;3.15;1.88;;;19.90;57.60;;;;;;4958942;28;20054;-78
2021/07/23 03:41:42;;;;;;;3.60;2.30;;;19.90;57.70;;;;;;4958463;28;20388;-79
2021/07/23 03:44:17;;;;;;;2.90;2.17;;;19.90;57.70;;;;;;4958344;28;20035;-79
2021/07/23 03:46:44;;;;;;;2.33;1.83;;;19.80;57.70;;;;;;4958049;28;20062;-79
2021/07/23 03:49:11;;;;;;;2.70;2.00;;;19.80;57.70;;;;;;4974005;28;20078;-78
2021/07/23 03:51:58;;;;;;;3.65;2.17;;;19.80;57.80;;;;;;4960801;28;20066;-79
2021/07/23 03:54:27;;;;;;;2.92;2.15;;;19.80;57.80;;;;;;4958374;28;20058;-80
2021/07/23 03:56:53;;;;;;;2.45;2.03;;;19.80;57.90;;;;;;4958105;28;20387;-79
2021/07/23 03:59:21;;;;;;;3.15;2.17;;;19.80;58.00;;;;;;4958449;28;20045;-79
2021/07/23 04:01:57;;;;;;;2.45;1.90;;;19.80;58.00;;;;;;4958842;28;20070;-78
2021/07/23 04:04:23;;;;;;;2.92;2.10;;;19.70;57.90;;;;;;4958121;28;20471;-79
2021/07/23 04:06:59;;;;;;;2.92;2.03;;;19.70;58.00;;;;;;4958111;28;20046;-79
2021/07/23 04:09:29;;;;;;;2.70;2.10;;;19.70;58.10;;;;;;4974033;28;20038;-79
2021/07/23 04:11:56;;;;;;;2.78;2.10;;;19.60;58.00;;;;;;4957829;28;20423;-79
2021/07/23 04:14:27;;;;;;;2.25;1.98;;;19.60;58.00;;;;;;4959207;28;20037;-79
2021/07/23 04:16:54;;;;;;;2.85;2.20;;;19.60;58.10;;;;;;4974023;28;20130;-79
2021/07/23 04:19:21;;;;;;;2.58;2.20;;;19.60;58.10;;;;;;4957925;28;20023;-79
2021/07/23 04:21:51;;;;;;;2.72;2.03;;;19.50;58.10;;;;;;4973554;28;20046;-79
2021/07/23 04:24:37;;;;;;;2.90;2.30;;;19.50;58.10;;;;;;4974023;28;20113;-79
2021/07/23 04:27:03;;;;;;;2.22;1.73;;;19.50;58.10;;;;;;4957420;28;20034;-78
2021/07/23 04:29:29;;;;;;;3.13;2.00;;;19.50;58.20;;;;;;4957307;28;20033;-79
2021/07/23 04:31:56;;;;;;;3.28;2.17;;;19.50;58.30;;;;;;4957477;28;20042;-79
2021/07/23 04:34:21;;;;;;;2.30;2.00;;;19.50;58.30;;;;;;4973613;28;20142;-79
2021/07/23 04:37:09;;;;;;;2.38;2.00;;;19.50;58.30;;;;;;4973789;28;20110;-79
2021/07/23 04:39:39;;;;;;;3.03;2.30;;;19.40;58.30;;;;;;4973889;28;20122;-78
2021/07/23 04:42:08;;;;;;;3.28;2.30;;;19.40;58.40;;;;;;4958013;28;20057;-79
2021/07/23 04:44:34;;;;;;;2.72;2.15;;;19.40;58.40;;;;;;4958281;28;20026;-78
2021/07/23 04:47:01;;;;;;;2.40;1.88;;;19.40;58.40;;;;;;4957396;28;20046;-79
2021/07/23 04:49:30;;;;;;;2.50;2.10;;;19.40;58.50;;;;;;4957522;28;20069;-78
2021/07/23 04:51:57;;;;;;;2.10;1.88;;;19.30;58.50;;;;;;4957151;28;20027;-79
2021/07/23 04:55:07;;;;;;;3.10;2.53;;;19.30;58.50;;;;;;4943218;29;20047;-78
2021/07/23 04:57:53;;;;;;;2.17;1.95;;;19.30;58.50;;;;;;4943265;29;20122;-79
2021/07/23 05:00:19;;;;;;;2.22;1.80;;;19.30;58.50;;;;;;4970419;28;20081;-79
2021/07/23 05:02:58;;;;;;;2.92;2.00;;;19.30;58.60;;;;;;4961653;28;20027;-81
2021/07/23 05:05:25;;;;;;;2.85;2.05;;;19.30;58.70;;;;;;4977900;28;20466;-78
2021/07/23 05:07:51;;;;;;;2.20;2.00;;;19.30;58.60;;;;;;4961878;28;20106;-79
2021/07/23 05:10:18;;;;;;;3.03;2.22;;;19.20;58.70;;;;;;4961430;28;20034;-79
2021/07/23 05:12:44;;;;;;;2.55;2.00;;;19.20;58.70;;;;;;4960939;28;20023;-79
2021/07/23 05:15:12;;;;;;;2.72;2.13;;;19.20;58.70;;;;;;4976801;28;20457;-79
2021/07/23 05:17:39;;;;;;;2.80;2.17;;;19.20;58.80;;;;;;4977106;28;20460;-78
2021/07/23 05:20:07;;;;;;;2.70;2.13;;;19.20;58.70;;;;;;4960943;28;20035;-79
2021/07/23 05:22:33;;;;;;;2.08;1.83;;;19.20;58.80;;;;;;4960719;28;20055;-79
2021/07/23 05:24:59;;;;;;;3.05;2.20;;;19.20;58.80;;;;;;4977723;28;20071;-79
2021/07/23 05:27:28;;;;;;;3.28;2.30;;;19.20;58.80;;;;;;4961455;28;20506;-79
2021/07/23 05:29:54;;;;;;;2.72;2.00;;;19.20;58.90;;;;;;4976207;28;20050;-80
2021/07/23 05:32:19;;;;;;;3.53;2.10;;;19.20;58.90;;;;;;4960949;28;20035;-79
2021/07/23 05:34:45;;;;;;;3.08;2.28;;;19.20;59.00;;;;;;4976492;28;20064;-79
2021/07/23 05:37:11;;;;;;;2.72;2.00;;;19.20;58.90;;;;;;4960586;28;20030;-78
2021/07/23 05:39:40;;;;;;;3.10;2.17;;;19.20;58.90;;;;;;4960568;28;20038;-79
2021/07/23 05:42:06;;;;;;;2.90;2.08;;;19.20;59.00;;;;;;4976307;28;20043;-79
2021/07/23 05:44:31;;;;;;;3.25;2.42;;;19.20;59.00;;;;;;4976478;28;20045;-79
2021/07/23 05:47:01;;;;;;;2.38;2.00;;;19.20;59.00;;;;;;4960424;28;20031;-79
2021/07/23 05:49:30;;;;;;;2.40;1.90;;;19.20;59.10;;;;;;4960146;28;20038;-79
2021/07/23 05:51:56;;;;;;;2.65;1.95;;;19.20;59.10;;;;;;4960132;28;20086;-79
2021/07/23 05:54:21;;;;;;;2.78;2.15;;;19.20;59.10;;;;;;4960182;28;20031;-79
2021/07/23 05:56:48;;;;;;;2.92;2.17;;;19.20;59.10;;;;;;4960161;28;20074;-79
2021/07/23 05:59:14;;;;;;;2.42;1.83;;;19.20;59.10;;;;;;4960415;28;20093;-77
2021/07/23 06:01:40;;;;;;;2.28;1.90;;;19.10;59.70;;;;;;4976956;28;20047;-80
2021/07/23 06:04:05;;;;;;;2.90;2.17;;;19.20;59.20;;;;;;4960033;28;20034;-78
2021/07/23 06:06:31;;;;;;;2.40;1.90;;;19.20;59.20;;;;;;4958953;28;20042;-79
2021/07/23 06:08:58;;;;;;;2.22;1.88;;;19.20;59.20;;;;;;4975885;28;20035;-79
2021/07/23 06:11:24;;;;;;;2.65;1.88;;;19.20;59.20;;;;;;4960004;28;20054;-79
2021/07/23 06:13:49;;;;;;;3.33;1.88;;;19.20;59.20;;;;;;4975922;28;20464;-79
2021/07/23 06:16:15;;;;;;;2.92;1.80;;;19.20;59.30;;;;;;4976123;28;20062;-79
2021/07/23 06:18:41;;;;;;;2.72;2.08;;;19.20;59.30;;;;;;4959705;28;20387;-79
2021/07/23 06:21:07;;;;;;;3.30;1.92;;;19.20;59.20;;;;;;4976455;28;20483;-80
2021/07/23 06:23:33;;;;;;;2.22;1.73;;;19.20;59.30;;;;;;4977466;28;20043;-80
2021/07/23 06:26:05;;;;;;;2.35;1.80;;;19.20;59.30;;;;;;4959616;28;20057;-79
2021/07/23 06:28:31;;;;;;;3.00;1.95;;;19.20;59.40;;;;;;4975863;28;20039;-79
2021/07/23 06:31:07;;;;;;;1.90;1.60;;;19.30;59.30;;;;;;4959123;28;20511;-80
2021/07/23 06:33:32;;;;;;;2.47;1.63;;;19.20;59.30;;;;;;4976690;28;20030;-78
2021/07/23 06:36:00;;;;;;;2.15;1.73;;;19.20;59.30;;;;;;4959385;28;20037;-80
2021/07/23 06:38:26;;;;;;;1.92;1.70;;;19.30;59.40;;;;;;4959303;28;20030;-79
2021/07/23 06:40:53;;;;;;;1.80;1.67;;;19.30;59.30;;;;;;4959241;28;20392;-81
2021/07/23 06:43:19;;;;;;;2.30;1.67;;;19.30;59.40;;;;;;4975691;28;20129;-79
2021/07/23 06:45:55;;;;;;;2.85;1.67;;;19.30;59.40;;;;;;4976657;28;20027;-78
2021/07/23 06:48:21;;;;;;;1.70;1.60;;;19.30;59.50;;;;;;4976484;28;20043;-79
2021/07/23 06:50:49;;;;;;;2.40;1.80;;;19.30;59.30;;;;;;4959574;28;20037;-79
2021/07/23 06:53:15;;;;;;;2.20;1.70;;;19.30;59.40;;;;;;4975621;28;20125;-78
2021/07/23 06:55:41;;;;;;;2.95;2.00;;;19.40;60.10;;;;;;4958992;28;20023;-78
2021/07/23 06:58:07;;;;;;;2.30;1.50;;;19.40;59.50;;;;;;4958695;28;20530;-78
2021/07/23 07:00:33;;;;;;;2.53;1.80;;;19.40;59.50;;;;;;4958379;28;20029;-79
2021/07/23 07:03:00;;;;;;;2.38;1.80;;;19.40;59.50;;;;;;4974854;28;20046;-80
2021/07/23 07:05:25;;;;;;;2.50;1.83;;;19.40;59.50;;;;;;4975044;28;20031;-78
2021/07/23 07:07:51;;;;;;;2.17;1.60;;;19.40;59.50;;;;;;4974751;28;20471;-78
2021/07/23 07:10:18;;;;;;;2.33;1.75;;;19.50;59.50;;;;;;4975377;28;20459;-78
2021/07/23 07:12:43;;;;;;;2.15;1.60;;;19.50;59.50;;;;;;4958499;28;20041;-78
2021/07/23 07:15:10;;;;;;;2.25;1.73;;;19.50;59.50;;;;;;4958613;28;20117;-79
2021/07/23 07:17:35;;;;;;;1.77;1.40;;;19.50;59.60;;;;;;4957899;28;20066;-80
2021/07/23 07:20:01;;;;;;;1.73;1.40;;;19.50;59.60;;;;;;4958465;28;20043;-80
2021/07/23 07:22:27;;;;;;;2.33;1.67;;;19.60;59.60;;;;;;4958266;28;20046;-79
2021/07/23 07:24:53;;;;;;;1.90;1.70;;;19.60;59.60;;;;;;4974536;28;20058;-79
2021/07/23 07:27:20;;;;;;;1.98;1.55;;;19.60;59.60;;;;;;4958168;28;20023;-77
2021/07/23 07:29:46;;;;;;;2.67;1.70;;;19.60;59.60;;;;;;4958409;28;20031;-79
2021/07/23 07:32:12;;;;;;;2.17;1.70;;;19.60;59.60;;;;;;4958178;28;20416;-78
2021/07/23 07:34:38;;;;;;;2.63;1.73;;;19.70;59.80;;;;;;4942142;28;20031;-78
2021/07/23 07:37:05;;;;;;;2.40;1.83;;;19.70;59.80;;;;;;4957986;28;20034;-79
2021/07/23 07:39:31;;;;;;;2.08;1.65;;;19.70;59.90;;;;;;4958120;28;20030;-79
2021/07/23 07:41:58;;;;;;;2.15;1.70;;;19.80;59.90;;;;;;4957624;28;20046;-78
2021/07/23 07:44:24;;;;;;;2.70;2.00;;;19.80;59.80;;;;;;4958007;28;20166;-77
2021/07/23 07:46:49;;;;;;;2.50;1.63;;;19.90;59.90;;;;;;4958307;28;20464;-77
2021/07/23 07:49:16;;;;;;;2.28;1.90;;;19.90;59.80;;;;;;4958004;28;20121;-77
2021/07/23 07:51:42;;;;;;;2.63;1.80;;;20.00;59.80;;;;;;4957823;28;20075;-77
2021/07/23 07:54:10;;;;;;;2.20;1.70;;;20.00;59.80;;;;;;4975427;28;20023;-77
2021/07/23 07:56:36;;;;;;;2.35;1.83;;;20.00;59.80;;;;;;4958156;28;20081;-77
2021/07/23 07:59:02;;;;;;;3.38;1.90;;;20.00;59.80;;;;;;4957676;28;20023;-78
2021/07/23 08:01:28;;;;;;;3.30;1.75;;;20.10;59.80;;;;;;4973586;28;20034;-77
2021/07/23 08:03:53;;;;;;;2.53;1.77;;;20.10;59.80;;;;;;4973774;28;20129;-77
2021/07/23 08:06:27;;;;;;;2.25;1.80;;;20.20;59.70;;;;;;4957665;28;20069;-77
2021/07/23 08:08:56;;;;;;;2.35;1.70;;;20.20;59.70;;;;;;4958031;28;20411;-78
2021/07/23 08:11:22;;;;;;;2.30;1.90;;;20.30;59.70;;;;;;4974855;28;20047;-76
2021/07/23 08:13:48;;;;;;;2.45;1.75;;;20.30;59.70;;;;;;4958316;28;20031;-78
2021/07/23 08:16:14;;;;;;;2.22;1.75;;;20.30;59.60;;;;;;4973806;28;20039;-78
2021/07/23 08:18:40;;;;;;;2.22;1.70;;;20.40;59.60;;;;;;4973878;28;20074;-77
2021/07/23 08:21:06;;;;;;;2.67;1.80;;;20.40;59.60;;;;;;4975231;28;20027;-77
2021/07/23 08:23:34;;;;;;;2.28;1.70;;;20.50;59.60;;;;;;4957361;28;20035;-78
2021/07/23 08:26:01;;;;;;;2.90;1.85;;;20.50;59.60;;;;;;4957547;28;20030;-77
2021/07/23 08:28:27;;;;;;;2.78;1.90;;;20.60;59.60;;;;;;4973367;28;20038;-80
2021/07/23 08:30:53;;;;;;;2.95;2.05;;;20.60;59.50;;;;;;4972877;28;20132;-79
2021/07/23 08:33:22;;;;;;;2.47;1.90;;;20.60;59.40;;;;;;4957769;28;20082;-81
2021/07/23 08:35:49;;;;;;;2.42;1.80;;;20.70;59.50;;;;;;4958200;28;20129;-79
2021/07/23 08:38:15;;;;;;;2.38;1.90;;;20.70;59.40;;;;;;4957265;28;20071;-82
2021/07/23 08:40:41;;;;;;;2.53;2.00;;;20.80;59.40;;;;;;4957540;28;20031;-82
2021/07/23 08:43:07;;;;;;;2.67;1.90;;;20.80;59.30;;;;;;4974637;28;20454;-78
2021/07/23 08:45:32;;;;;;;2.67;1.90;;;20.90;59.30;;;;;;4974353;28;20030;-81
2021/07/23 08:47:59;;;;;;;3.17;1.98;;;20.90;59.20;;;;;;4973300;28;20471;-78
2021/07/23 08:50:25;;;;;;;2.53;1.90;;;20.90;59.20;;;;;;4941108;28;20052;-80
2021/07/23 08:52:54;;;;;;;2.17;1.70;;;21.00;59.20;;;;;;4974279;28;20159;-78
2021/07/23 08:55:20;;;;;;;2.92;1.80;;;21.10;59.20;;;;;;4957068;28;20039;-79
2021/07/23 08:57:47;;;;;;;2.65;1.75;;;21.10;59.20;;;;;;4973225;28;20027;-79
2021/07/23 09:00:15;;;;;;;2.63;1.98;;;21.20;59.10;;;;;;4973319;28;20034;-79
2021/07/23 09:02:54;;;;;;;2.85;2.10;;;21.20;59.20;;;;;;4957045;28;20050;-79
2021/07/23 09:05:23;;;;;;;2.78;2.00;;;21.20;59.20;;;;;;4957192;28;20035;-79
2021/07/23 09:07:49;;;;;;;2.38;1.80;;;21.30;59.20;;;;;;4972872;28;20452;-79
2021/07/23 09:10:23;;;;;;;2.40;1.88;;;21.30;59.20;;;;;;4957147;28;20035;-79
2021/07/23 09:12:50;;;;;;;3.05;2.20;;;21.40;59.30;;;;;;4973314;28;20134;-78
2021/07/23 09:15:24;;;;;;;2.22;1.80;;;21.40;59.10;;;;;;4973316;28;20491;-79
2021/07/23 09:17:51;;;;;;;2.33;1.73;;;21.40;59.20;;;;;;4957231;28;20387;-80
2021/07/23 09:20:21;;;;;;;2.15;1.60;;;21.50;59.00;;;;;;4957160;28;20478;-78
2021/07/23 09:22:49;;;;;;;1.92;1.65;;;21.50;59.00;;;;;;4956837;28;20521;-79
2021/07/23 09:25:15;;;;;;;2.38;1.73;;;21.60;59.20;;;;;;4956626;28;20478;-79
2021/07/23 09:27:41;;;;;;;2.35;1.75;;;21.60;59.00;;;;;;4974273;28;20489;-80
2021/07/23 09:30:09;;;;;;;2.30;1.83;;;21.70;59.00;;;;;;4956658;28;20129;-81
2021/07/23 09:32:35;;;;;;;2.55;1.90;;;21.70;59.00;;;;;;4941032;28;20038;-79
2021/07/23 09:35:12;;;;;;;2.97;2.15;;;21.80;59.00;;;;;;4972801;28;20452;-79
2021/07/23 09:38:04;;;;;;;3.03;1.90;;;21.80;59.00;;;;;;4973804;28;20082;-79
2021/07/23 09:40:42;;;;;;;2.72;1.90;;;21.80;59.00;;;;;;4971445;28;20151;-79
2021/07/23 09:43:08;;;;;;;2.03;1.58;;;21.90;59.00;;;;;;4960063;28;20046;-78
2021/07/23 09:45:34;;;;;;;2.85;1.65;;;21.90;58.80;;;;;;4977386;28;20387;-79
2021/07/23 09:48:13;;;;;;;3.33;2.30;;;22.00;58.90;;;;;;4977797;28;20490;-79
2021/07/23 09:50:45;;;;;;;2.97;2.10;;;22.00;59.00;;;;;;4976937;28;20035;-79
2021/07/23 09:53:13;;;;;;;2.83;1.95;;;22.10;58.90;;;;;;4960482;28;20042;-80
2021/07/23 09:55:40;;;;;;;2.70;1.77;;;22.10;58.90;;;;;;4960366;28;20071;-83
2021/07/23 09:58:07;;;;;;;2.17;1.60;;;22.10;58.80;;;;;;4959771;28;20121;-82
2021/07/23 10:00:37;;;;;;;2.95;1.83;;;22.20;58.80;;;;;;4976439;28;20027;-81
2021/07/23 10:03:06;;;;;;;2.42;1.92;;;22.20;58.80;;;;;;4960091;28;20163;-81
2021/07/23 10:05:37;;;;;;;2.72;1.90;;;22.20;58.70;;;;;;4959556;28;20061;-80
2021/07/23 10:08:10;;;;;;;2.42;1.80;;;22.30;58.70;;;;;;4959989;28;20042;-79
2021/07/23 10:10:38;;;;;;;2.67;1.80;;;22.40;58.80;;;;;;4959610;28;20038;-79
2021/07/23 10:13:06;;;;;;;2.92;1.70;;;22.40;58.60;;;;;;4959886;28;20038;-79
2021/07/23 10:15:36;;;;;;;2.58;1.70;;;22.40;58.60;;;;;;4958995;28;20081;-79
2021/07/23 10:18:04;;;;;;;2.70;1.80;;;22.50;58.70;;;;;;4975733;28;20045;-78
2021/07/23 10:20:31;;;;;;;2.97;1.98;;;22.50;58.60;;;;;;4959136;28;20054;-80
2021/07/23 10:22:57;;;;;;;2.63;1.90;;;22.60;58.60;;;;;;4976813;28;20074;-80
2021/07/23 10:25:24;;;;;;;2.80;1.90;;;22.60;58.60;;;;;;4959296;28;20031;-80
2021/07/23 10:27:50;;;;;;;3.08;2.00;;;22.70;58.50;;;;;;4959232;28;20031;-81
2021/07/23 10:30:42;;;;;;;3.38;2.10;;;22.70;58.50;;;;;;4974975;28;20101;-79
2021/07/23 10:33:08;;;;;;;2.20;1.77;;;22.70;58.50;;;;;;4973908;28;20051;-79
2021/07/23 10:35:35;;;;;;;2.15;1.95;;;22.80;58.30;;;;;;4975366;28;20118;-78
2021/07/23 10:38:01;;;;;;;2.10;1.73;;;22.80;58.30;;;;;;4958976;28;20125;-80
2021/07/23 10:40:36;;;;;;;3.13;1.80;;;22.90;58.20;;;;;;4959242;28;20125;-79
2021/07/23 10:43:02;;;;;;;3.17;2.20;;;22.90;58.20;;;;;;4959042;28;20451;-80
2021/07/23 10:45:42;;;;;;;2.70;1.92;;;22.90;58.10;;;;;;4959288;28;20424;-80
2021/07/23 10:48:08;;;;;;;2.55;1.90;;;23.00;58.20;;;;;;4959008;28;20118;-79
2021/07/23 10:50:40;;;;;;;2.72;1.77;;;23.10;58.10;;;;;;4975151;28;20053;-84
2021/07/23 10:53:24;;;;;;;2.83;2.00;;;23.10;58.20;;;;;;4974545;28;20045;-79
2021/07/23 10:55:50;;;;;;;3.30;2.10;;;23.10;58.20;;;;;;4975315;28;20022;-80
2021/07/23 10:58:18;;;;;;;2.25;1.55;;;23.10;58.00;;;;;;4958919;28;20038;-79
2021/07/23 11:00:50;;;;;;;3.33;2.00;;;23.20;58.00;;;;;;4976417;28;20538;-78
2021/07/23 11:03:39;;;;;;;3.03;2.00;;;23.20;57.90;;;;;;4958631;28;20073;-78
2021/07/23 11:06:15;;;;;;;2.58;1.80;;;23.20;57.90;;;;;;4974791;28;20027;-80
2021/07/23 11:08:52;;;;;;;2.47;1.83;;;23.30;57.80;;;;;;4974922;28;20038;-79
2021/07/23 11:11:20;;;;;;;2.83;2.00;;;23.30;57.70;;;;;;4943322;28;20101;-79
2021/07/23 11:13:46;;;;;;;2.70;1.92;;;23.40;57.60;;;;;;4975991;28;20122;-77
2021/07/23 11:16:26;;;;;;;2.83;1.90;;;23.40;57.60;;;;;;4974351;28;20468;-78
2021/07/23 11:18:57;;;;;;;2.97;1.98;;;23.40;57.60;;;;;;4974602;28;20027;-78
2021/07/23 11:21:34;;;;;;;2.70;1.88;;;23.50;57.50;;;;;;4959851;28;20129;-78
2021/07/23 11:24:01;;;;;;;3.33;2.13;;;23.60;57.50;;;;;;4958922;28;20370;-78
2021/07/23 11:26:27;;;;;;;3.08;1.90;;;23.60;57.40;;;;;;4958303;28;20126;-78
2021/07/23 11:28:56;;;;;;;2.28;1.67;;;23.60;57.30;;;;;;4942299;28;20479;-79
2021/07/23 11:31:31;;;;;;;3.25;1.63;;;23.70;57.20;;;;;;4957992;28;20465;-77
2021/07/23 11:33:58;;;;;;;2.63;1.80;;;23.70;57.10;;;;;;4958303;28;20038;-78
2021/07/23 11:36:39;;;;;;;2.45;1.85;;;23.80;57.00;;;;;;4974324;28;20038;-77
2021/07/23 11:39:07;;;;;;;2.58;1.70;;;23.80;57.10;;;;;;4973730;28;20034;-81
2021/07/23 11:41:33;;;;;;;2.75;1.90;;;23.90;57.00;;;;;;4957848;28;20073;-80
2021/07/23 11:44:10;;;;;;;2.58;1.73;;;23.90;56.90;;;;;;4974441;28;20058;-79
2021/07/23 11:46:38;;;;;;;3.28;1.98;;;24.00;56.90;;;;;;4957918;28;20483;-79
2021/07/23 11:49:04;;;;;;;3.67;2.28;;;24.00;56.80;;;;;;4958701;28;20470;-79
2021/07/23 11:51:49;;;;;;;2.40;1.88;;;24.00;56.70;;;;;;4974343;28;20035;-78
2021/07/23 11:54:18;;;;;;;;;;;24.10;56.90;;;;;;4976631;28;20058;-80
2021/07/23 11:56:44;;;;;;;2.72;2.00;;;24.10;56.70;;;;;;4975374;28;19917;-79
2021/07/23 11:59:11;;;;;;;2.70;1.70;;;24.20;56.60;;;;;;4958370;28;20035;-79
2021/07/23 12:01:39;;;;;;;2.17;1.73;;;24.20;56.70;;;;;;4957612;28;20037;-79
2021/07/23 12:04:07;;;;;;;1.95;1.63;;;24.20;56.60;;;;;;4973091;28;20481;-79
2021/07/23 12:06:33;;;;;;;3.47;2.22;;;24.30;56.60;;;;;;4957562;28;20034;-79
2021/07/23 12:09:02;;;;;;;3.15;2.00;;;24.30;56.50;;;;;;4974701;28;20026;-79
2021/07/23 12:11:32;;;;;;;3.47;2.10;;;24.40;56.50;;;;;;4957704;28;20464;-79
2021/07/23 12:14:04;;;;;;;3.15;2.00;;;24.40;56.50;;;;;;4957551;28;20532;-80
2021/07/23 12:16:30;;;;;;;3.42;2.30;;;24.40;56.40;;;;;;4957640;28;20034;-79
2021/07/23 12:18:57;;;;;;;3.10;2.20;;;24.50;56.50;;;;;;4973700;28;20366;-80
2021/07/23 12:21:27;;;;;;;3.38;2.42;;;24.50;56.40;;;;;;4973565;28;20121;-80
2021/07/23 12:24:01;;;;;;;3.22;2.20;;;24.50;56.30;;;;;;4957002;28;20121;-80
2021/07/23 12:26:38;;;;;;;2.85;2.20;;;24.60;56.40;;;;;;4957752;28;20034;-78
2021/07/23 12:29:06;;;;;;;3.75;2.40;;;24.60;56.40;;;;;;4973502;28;20062;-78
2021/07/23 12:31:33;;;;;;;3.55;2.30;;;24.60;56.30;;;;;;4940985;28;20059;-78
2021/07/23 12:34:08;;;;;;;3.15;2.30;;;24.70;56.30;;;;;;4974718;28;20034;-79
2021/07/23 12:36:46;;;;;;;3.65;2.25;;;24.70;56.30;;;;;;4973989;28;20031;-79
2021/07/23 12:39:16;;;;;;;3.25;2.05;;;24.80;56.30;;;;;;4973460;28;20113;-78
2021/07/23 12:41:42;;;;;;;5.05;2.40;;;24.80;56.20;;;;;;4956893;28;20023;-78
2021/07/23 12:44:15;;;;;;;3.33;2.38;;;24.80;56.20;;;;;;4957283;28;20063;-77
2021/07/23 12:46:43;;;;;;;2.93;2.10;;;24.80;56.20;;;;;;4973856;28;20155;-77
2021/07/23 12:49:13;;;;;;;2.65;2.00;;;24.90;56.10;;;;;;4972676;28;20081;-78
2021/07/23 12:51:40;;;;;;;3.78;2.35;;;24.90;56.00;;;;;;4973107;28;20031;-78
2021/07/23 12:54:06;;;;;;;3.90;2.38;;;24.90;56.00;;;;;;4976209;28;20023;-78
2021/07/23 12:56:33;;;;;;;3.40;2.13;;;24.90;55.90;;;;;;4961867;28;20130;-77